Time;durP1;ratioP1;P1;durP2;ratioP2;P2;SDS_P1;SDS_P2;PMS_P1;PMS_P2;Temp;Humidity;BMP_temperature;BMP_pressure;BME280_temperature;BME280_humidity;BME280_pressure;Samples;Min_cycle;Max_cycle;Signal;HPM_P1;HPM_P2
2022/12/05 00:01:39;;;;;;;37.60;13.07;;;3.90;99.90;;;;;;4981351;28;20034;-70
2022/12/05 00:04:10;;;;;;;27.15;12.38;;;3.90;99.90;;;;;;4980339;28;20149;-72
2022/12/05 00:06:36;;;;;;;30.17;12.38;;;3.80;99.90;;;;;;4982502;28;20513;-70
2022/12/05 00:09:03;;;;;;;32.42;13.13;;;3.90;99.90;;;;;;5000459;28;20037;-73
2022/12/05 00:11:32;;;;;;;32.08;12.35;;;3.90;99.90;;;;;;4998560;28;20045;-70
2022/12/05 00:13:59;;;;;;;29.35;12.70;;;4.00;99.90;;;;;;4999013;28;20037;-72
2022/12/05 00:16:27;;;;;;;29.48;12.20;;;4.00;99.90;;;;;;4998228;28;20054;-69
2022/12/05 00:18:53;;;;;;;29.63;12.65;;;4.00;99.90;;;;;;4998250;28;20124;-71
2022/12/05 00:21:22;;;;;;;29.20;11.15;;;4.00;99.90;;;;;;5000625;28;20066;-71
2022/12/05 00:23:48;;;;;;;29.02;11.73;;;4.00;99.90;;;;;;4998256;28;20049;-71
2022/12/05 00:26:14;;;;;;;31.27;11.88;;;4.00;99.90;;;;;;4999775;28;20026;-70
2022/12/05 00:28:40;;;;;;;28.60;11.75;;;4.10;99.90;;;;;;5000220;28;20026;-68
2022/12/05 00:31:09;;;;;;;27.90;11.23;;;4.10;99.90;;;;;;4979643;28;20557;-72
2022/12/05 00:33:34;;;;;;;30.15;10.88;;;4.00;99.90;;;;;;4998772;28;20406;-71
2022/12/05 00:36:05;;;;;;;29.08;12.02;;;4.10;99.90;;;;;;4980785;28;20083;-70
2022/12/05 00:38:31;;;;;;;;;;;4.00;99.90;;;;;;4998801;28;20030;-72
2022/12/05 00:41:03;;;;;;;28.48;11.60;;;4.00;99.90;;;;;;4998135;28;20424;-71
2022/12/05 00:43:28;;;;;;;30.48;11.88;;;4.10;99.90;;;;;;4998038;28;20034;-68
2022/12/05 00:45:54;;;;;;;29.27;12.02;;;4.10;99.90;;;;;;4998946;28;20131;-71
2022/12/05 00:51:10;;;;;;;27.05;11.98;;;4.00;99.90;;;;;;5013091;22;20046;-73
2022/12/05 00:53:36;;;;;;;30.95;12.68;;;4.00;99.90;;;;;;4989384;28;20046;-74
2022/12/05 00:56:08;;;;;;;28.67;11.80;;;4.00;99.90;;;;;;5009400;28;20022;-74
2022/12/05 00:58:33;;;;;;;28.42;12.00;;;4.00;99.90;;;;;;4990510;28;20034;-72
2022/12/05 01:01:07;;;;;;;30.65;11.82;;;4.00;99.90;;;;;;5000365;28;20031;-73
2022/12/05 01:03:34;;;;;;;24.50;10.88;;;4.00;99.90;;;;;;4979763;28;20493;-73
2022/12/05 01:06:00;;;;;;;27.10;10.65;;;4.00;99.90;;;;;;5006655;28;20034;-72
2022/12/05 01:08:26;;;;;;;29.23;11.68;;;4.00;99.90;;;;;;4995864;28;20034;-75
2022/12/05 01:10:54;;;;;;;25.60;10.85;;;4.10;99.90;;;;;;5003185;28;20037;-73
2022/12/05 01:13:20;;;;;;;32.30;12.13;;;4.10;99.90;;;;;;5003143;28;20049;-73
2022/12/05 01:15:45;;;;;;;28.58;11.88;;;4.10;99.90;;;;;;5028473;28;20620;-75
2022/12/05 01:18:11;;;;;;;29.50;12.80;;;4.00;99.90;;;;;;5027970;28;20532;-73
2022/12/05 01:20:41;;;;;;;26.63;10.27;;;4.10;99.90;;;;;;5024495;28;20037;-73
2022/12/05 01:23:07;;;;;;;30.05;12.15;;;4.10;99.90;;;;;;5008228;28;20490;-74
2022/12/05 01:25:32;;;;;;;34.28;13.43;;;4.00;99.90;;;;;;4990425;28;20038;-73
2022/12/05 01:27:58;;;;;;;31.98;12.10;;;4.10;99.90;;;;;;4990907;28;20029;-73
2022/12/05 01:30:24;;;;;;;27.58;11.63;;;4.10;99.90;;;;;;5017242;28;20520;-72
2022/12/05 01:32:49;;;;;;;31.17;11.65;;;4.10;99.90;;;;;;4993078;28;20045;-74
2022/12/05 01:35:15;;;;;;;26.25;10.68;;;4.10;99.90;;;;;;4989906;28;20490;-73
2022/12/05 01:37:41;;;;;;;39.60;12.15;;;4.10;99.90;;;;;;4990112;28;20030;-74
2022/12/05 01:40:08;;;;;;;28.42;11.60;;;4.20;99.90;;;;;;5007930;28;20026;-73
2022/12/05 01:42:33;;;;;;;30.00;11.52;;;4.20;99.90;;;;;;5010915;28;20045;-73
2022/12/05 01:45:31;;;;;;;28.60;11.00;;;4.10;99.90;;;;;;5027962;28;20033;-72
2022/12/05 01:48:01;;;;;;;27.48;12.20;;;4.20;99.90;;;;;;5025147;28;20044;-73
2022/12/05 01:50:27;;;;;;;34.35;12.68;;;4.20;99.90;;;;;;5026965;28;20067;-75
2022/12/05 01:52:52;;;;;;;28.90;11.00;;;4.20;99.90;;;;;;5027900;28;20458;-73
2022/12/05 01:55:18;;;;;;;28.35;11.90;;;4.10;99.90;;;;;;5013990;28;20437;-73
2022/12/05 01:57:46;;;;;;;30.63;11.63;;;4.20;99.90;;;;;;5008118;28;20053;-74
2022/12/05 02:00:16;;;;;;;29.35;11.98;;;4.20;99.90;;;;;;5007731;28;20034;-73
2022/12/05 02:02:47;;;;;;;32.92;11.68;;;4.20;99.90;;;;;;5019923;28;20038;-74
2022/12/05 02:05:29;;;;;;;28.60;12.18;;;4.20;99.90;;;;;;5007251;28;20034;-73
2022/12/05 02:07:58;;;;;;;26.95;10.60;;;4.20;99.90;;;;;;5007755;28;20512;-75
2022/12/05 02:10:24;;;;;;;33.30;12.63;;;4.20;99.90;;;;;;5007148;28;20056;-72
2022/12/05 02:12:51;;;;;;;28.00;11.35;;;4.10;99.90;;;;;;5008055;28;20125;-73
2022/12/05 02:15:19;;;;;;;30.58;11.90;;;4.10;99.90;;;;;;5007648;28;20144;-73
2022/12/05 02:18:10;;;;;;;31.25;11.90;;;4.10;99.90;;;;;;5011826;28;20393;-74
2022/12/05 02:21:01;;;;;;;30.65;11.60;;;4.10;99.90;;;;;;5001191;28;20056;-75
2022/12/05 02:23:57;;;;;;;35.05;11.55;;;4.10;99.90;;;;;;5026806;28;20033;-72
2022/12/05 02:26:41;;;;;;;35.67;11.73;;;4.10;99.90;;;;;;5016798;28;20502;-73
2022/12/05 02:29:13;;;;;;;28.58;11.70;;;4.20;99.90;;;;;;5000996;28;20034;-74
2022/12/05 02:31:41;;;;;;;26.60;10.35;;;4.10;99.90;;;;;;4987875;28;20039;-73
2022/12/05 02:34:15;;;;;;;26.85;10.77;;;4.10;99.90;;;;;;4987641;28;20064;-73
2022/12/05 02:37:02;;;;;;;23.77;10.20;;;4.20;99.90;;;;;;5000352;28;20520;-73
2022/12/05 02:39:42;;;;;;;25.42;10.85;;;4.20;99.90;;;;;;5006965;28;20026;-73
2022/12/05 02:42:40;;;;;;;28.92;11.60;;;4.20;99.90;;;;;;5011544;28;20038;-72
2022/12/05 02:45:09;;;;;;;32.53;10.55;;;4.30;99.90;;;;;;4966636;28;20038;-73
2022/12/05 02:47:42;;;;;;;35.85;10.35;;;4.20;99.90;;;;;;4993144;28;20034;-75
2022/12/05 02:50:11;;;;;;;32.67;12.30;;;4.20;99.90;;;;;;4993135;28;20039;-73
2022/12/05 02:52:36;;;;;;;29.23;11.60;;;4.20;99.90;;;;;;5019908;28;20036;-73
2022/12/05 02:55:03;;;;;;;25.55;10.43;;;4.30;99.90;;;;;;4991704;28;20026;-73
2022/12/05 02:57:30;;;;;;;27.33;10.70;;;4.30;99.90;;;;;;4990293;28;20114;-73
2022/12/05 02:59:55;;;;;;;28.48;11.65;;;4.30;99.90;;;;;;4991630;28;20019;-74
2022/12/05 03:02:25;;;;;;;26.63;10.70;;;4.30;99.90;;;;;;4991429;28;20128;-73
2022/12/05 03:04:52;;;;;;;28.27;11.05;;;4.30;99.90;;;;;;5025059;28;20046;-73
2022/12/05 03:07:20;;;;;;;29.27;11.18;;;4.30;99.90;;;;;;5030091;28;20034;-74
2022/12/05 03:09:52;;;;;;;28.13;11.40;;;4.30;99.90;;;;;;5030450;28;20465;-73
2022/12/05 03:12:22;;;;;;;33.47;11.80;;;4.30;99.90;;;;;;5020263;28;20402;-73
2022/12/05 03:15:13;;;;;;;28.60;10.95;;;4.30;99.90;;;;;;5010432;28;20041;-73
2022/12/05 03:18:10;;;;;;;28.85;12.50;;;4.30;99.90;;;;;;5009856;28;20037;-73
2022/12/05 03:20:42;;;;;;;25.90;10.40;;;4.30;99.90;;;;;;5009864;28;20034;-73
2022/12/05 03:23:25;;;;;;;32.35;11.70;;;4.30;99.90;;;;;;5010199;28;20034;-75
2022/12/05 03:26:02;;;;;;;28.10;11.75;;;4.30;99.90;;;;;;4991794;28;20049;-73
2022/12/05 03:28:51;;;;;;;29.50;11.02;;;4.30;99.90;;;;;;5029023;28;20037;-73
2022/12/05 03:31:25;;;;;;;27.17;10.60;;;4.40;99.90;;;;;;4986829;28;20052;-74
2022/12/05 03:33:57;;;;;;;26.83;11.32;;;4.40;99.90;;;;;;5003078;28;20036;-73
2022/12/05 03:36:31;;;;;;;28.60;11.05;;;4.40;99.90;;;;;;5026772;28;20041;-73
2022/12/05 03:39:21;;;;;;;26.50;11.07;;;4.40;99.90;;;;;;4993155;28;20026;-73
2022/12/05 03:42:14;;;;;;;28.48;10.77;;;4.40;99.90;;;;;;5019307;28;20034;-74
2022/12/05 03:45:15;;;;;;;21.92;9.77;;;4.40;99.90;;;;;;5012390;28;20502;-75
2022/12/05 03:47:47;;;;;;;;;;;4.40;99.90;;;;;;4996130;28;20505;-74
2022/12/05 03:50:25;;;;;;;21.73;8.95;;;4.40;99.90;;;;;;5009718;28;20524;-73
2022/12/05 03:53:03;;;;;;;26.73;11.18;;;4.40;99.90;;;;;;5009772;28;20409;-73
2022/12/05 03:55:32;;;;;;;23.95;9.40;;;4.50;99.90;;;;;;5009685;28;20050;-73
2022/12/05 03:58:00;;;;;;;22.77;9.80;;;4.40;99.90;;;;;;4991997;28;20030;-73
2022/12/05 04:00:29;;;;;;;28.02;10.10;;;4.40;99.90;;;;;;5020402;28;20034;-73
2022/12/05 04:03:02;;;;;;;24.75;9.32;;;4.40;99.90;;;;;;5026762;28;20109;-75
2022/12/05 04:05:38;;;;;;;21.63;9.63;;;4.50;99.90;;;;;;5024793;28;20029;-73
2022/12/05 04:08:21;;;;;;;23.50;9.38;;;4.40;99.90;;;;;;5025411;28;20131;-73
2022/12/05 04:10:50;;;;;;;29.10;11.65;;;4.50;99.90;;;;;;5008079;28;20033;-73
2022/12/05 04:13:36;;;;;;;25.85;9.73;;;4.50;99.90;;;;;;5009296;28;20045;-73
2022/12/05 04:19:15;;;;;;;23.30;9.05;;;4.50;99.90;;;;;;5003240;28;20120;-74
2022/12/05 04:21:45;;;;;;;20.98;8.80;;;4.50;99.90;;;;;;5023382;28;20025;-72
2022/12/05 04:27:41;;;;;;;21.63;9.98;;;4.60;99.90;;;;;;5005818;28;20040;-73
2022/12/05 04:30:12;;;;;;;23.67;9.00;;;4.60;99.90;;;;;;4999166;28;20137;-73
2022/12/05 04:33:01;;;;;;;21.90;9.10;;;4.60;99.90;;;;;;5024227;28;20036;-73
2022/12/05 04:35:37;;;;;;;19.83;9.80;;;4.60;99.90;;;;;;4971576;28;20035;-73
2022/12/05 04:38:08;;;;;;;23.08;9.13;;;4.50;99.90;;;;;;4989815;28;20036;-73
2022/12/05 04:40:43;;;;;;;26.00;10.68;;;4.60;99.90;;;;;;5022868;28;20072;-73
2022/12/05 04:43:11;;;;;;;24.83;8.40;;;4.60;99.90;;;;;;5027345;28;20081;-74
2022/12/05 04:45:39;;;;;;;24.10;9.85;;;4.60;99.90;;;;;;5008516;28;20053;-74
2022/12/05 04:48:11;;;;;;;20.25;8.77;;;4.60;99.90;;;;;;5020962;28;20120;-76
2022/12/05 04:50:38;;;;;;;26.98;10.30;;;4.60;99.90;;;;;;5008808;28;20072;-75
2022/12/05 04:53:05;;;;;;;30.02;11.13;;;4.60;99.90;;;;;;5009044;28;20140;-72
2022/12/05 04:55:34;;;;;;;22.27;7.72;;;4.60;99.90;;;;;;5008540;28;20060;-73
2022/12/05 04:58:08;;;;;;;23.80;8.52;;;4.60;99.90;;;;;;4999422;28;20045;-74
2022/12/05 05:00:44;;;;;;;19.38;8.52;;;4.60;99.90;;;;;;5008474;28;20041;-73
2022/12/05 05:03:23;;;;;;;25.40;10.02;;;4.60;99.90;;;;;;4990606;28;20034;-73
2022/12/05 05:05:51;;;;;;;22.77;8.38;;;4.70;99.90;;;;;;5008704;28;20073;-74
2022/12/05 05:08:19;;;;;;;22.48;8.90;;;4.70;99.90;;;;;;5026617;28;20409;-73
2022/12/05 05:11:10;;;;;;;24.00;9.50;;;4.70;99.90;;;;;;5027989;28;20444;-74
2022/12/05 05:13:36;;;;;;;23.70;9.90;;;4.80;99.90;;;;;;5023246;28;20048;-74
2022/12/05 05:16:02;;;;;;;24.40;9.50;;;4.70;99.90;;;;;;5028732;28;20029;-73
2022/12/05 05:18:27;;;;;;;24.65;10.35;;;4.70;99.90;;;;;;5027663;28;20029;-73
2022/12/05 05:20:53;;;;;;;27.83;11.02;;;4.70;99.90;;;;;;5028450;28;20083;-73
2022/12/05 05:23:18;;;;;;;27.67;10.13;;;4.70;99.90;;;;;;5023995;28;20137;-73
2022/12/05 05:25:44;;;;;;;21.58;9.38;;;4.60;99.90;;;;;;5022952;28;20028;-73
2022/12/05 05:28:10;;;;;;;23.23;9.98;;;4.70;99.90;;;;;;4990270;28;20070;-73
2022/12/05 05:30:35;;;;;;;22.63;9.52;;;4.80;99.90;;;;;;5012993;28;20054;-73
2022/12/05 05:33:01;;;;;;;25.75;10.93;;;4.70;99.90;;;;;;5022746;28;20443;-73
2022/12/05 05:35:26;;;;;;;26.75;10.70;;;4.80;99.90;;;;;;5025927;28;20220;-74
2022/12/05 05:37:52;;;;;;;26.88;9.32;;;4.80;99.90;;;;;;5028181;28;20029;-73
2022/12/05 05:40:18;;;;;;;23.90;9.65;;;4.80;99.90;;;;;;5018417;28;20076;-72
2022/12/05 05:42:45;;;;;;;26.63;11.20;;;4.70;99.90;;;;;;5007794;28;20412;-74
2022/12/05 05:45:11;;;;;;;22.55;10.00;;;4.80;99.90;;;;;;5007960;28;20034;-74
2022/12/05 05:47:37;;;;;;;25.60;9.82;;;4.80;99.90;;;;;;5007477;28;20065;-72
2022/12/05 05:50:04;;;;;;;23.90;9.20;;;4.80;99.90;;;;;;5020939;28;20038;-74
2022/12/05 05:52:33;;;;;;;24.25;9.63;;;4.90;99.90;;;;;;5026729;28;20116;-74
2022/12/05 05:54:58;;;;;;;25.98;10.93;;;4.90;99.90;;;;;;5019186;28;20084;-72
2022/12/05 05:57:25;;;;;;;26.33;10.40;;;4.80;99.90;;;;;;5019110;28;20475;-73
2022/12/05 05:59:51;;;;;;;20.35;8.82;;;4.80;99.90;;;;;;5008102;28;20149;-73
2022/12/05 06:02:16;;;;;;;23.65;9.65;;;4.80;99.90;;;;;;5006272;28;20045;-74
2022/12/05 06:04:42;;;;;;;28.20;10.88;;;4.90;99.90;;;;;;5013567;28;20030;-73
2022/12/05 06:07:08;;;;;;;27.42;10.80;;;4.80;99.90;;;;;;4999324;28;20382;-74
2022/12/05 06:09:33;;;;;;;24.70;10.55;;;4.80;99.90;;;;;;5016792;28;20121;-73
2022/12/05 06:11:59;;;;;;;23.33;10.30;;;4.90;99.90;;;;;;5016848;28;20041;-74
2022/12/05 06:14:24;;;;;;;26.85;11.23;;;4.90;99.90;;;;;;5016402;28;20057;-75
2022/12/05 06:16:50;;;;;;;22.05;9.70;;;4.90;99.90;;;;;;5013795;28;20452;-74
2022/12/05 06:19:16;;;;;;;24.63;9.90;;;4.90;99.90;;;;;;5016320;28;20128;-73
2022/12/05 06:21:41;;;;;;;24.77;10.25;;;5.00;99.90;;;;;;5016214;28;20080;-72
2022/12/05 06:24:07;;;;;;;26.30;9.35;;;5.00;99.90;;;;;;5022285;28;20041;-73
2022/12/05 06:26:32;;;;;;;24.75;10.45;;;4.90;99.90;;;;;;5023246;28;20037;-74
2022/12/05 06:28:58;;;;;;;27.50;9.43;;;4.90;99.90;;;;;;5020294;28;20057;-74
2022/12/05 06:31:27;;;;;;;28.38;9.98;;;5.00;99.90;;;;;;5026491;28;20383;-73
2022/12/05 06:33:53;;;;;;;25.27;9.55;;;5.10;99.90;;;;;;5011636;28;20096;-73
2022/12/05 06:36:20;;;;;;;25.95;9.93;;;5.00;99.90;;;;;;5018406;28;20064;-74
2022/12/05 06:38:46;;;;;;;31.67;11.70;;;5.20;99.90;;;;;;5020514;28;20026;-73
2022/12/05 06:41:18;;;;;;;31.17;10.27;;;5.20;99.90;;;;;;5019385;28;20397;-73
2022/12/05 06:43:44;;;;;;;23.10;9.88;;;5.20;99.90;;;;;;5019012;28;20026;-72
2022/12/05 06:46:11;;;;;;;26.65;10.05;;;5.20;99.90;;;;;;5017530;28;20068;-74
2022/12/05 06:48:38;;;;;;;32.13;10.90;;;5.20;99.90;;;;;;5004730;28;20056;-73
2022/12/05 06:51:05;;;;;;;32.45;9.95;;;5.20;99.90;;;;;;5024753;28;20036;-73
2022/12/05 06:53:31;;;;;;;28.55;10.85;;;5.20;99.90;;;;;;5015727;28;20037;-73
2022/12/05 06:56:03;;;;;;;23.00;9.32;;;5.20;99.90;;;;;;5000258;28;20033;-73
2022/12/05 06:58:30;;;;;;;25.92;10.07;;;5.20;99.90;;;;;;5019620;28;20144;-73
2022/12/05 07:03:39;;;;;;;22.98;9.18;;;5.30;99.90;;;;;;5015889;28;20033;-73
2022/12/05 07:06:06;;;;;;;27.05;10.23;;;5.30;99.90;;;;;;5021086;28;20403;-74
2022/12/05 07:08:33;;;;;;;32.17;10.65;;;5.30;99.90;;;;;;5001986;28;20045;-74
2022/12/05 07:10:58;;;;;;;25.77;9.60;;;5.30;99.90;;;;;;5023076;28;20037;-73
2022/12/05 07:13:24;;;;;;;23.48;9.63;;;5.30;99.90;;;;;;5018548;28;20042;-74
2022/12/05 07:15:50;;;;;;;21.85;8.88;;;5.40;99.90;;;;;;5019155;28;20478;-74
2022/12/05 07:18:16;;;;;;;19.55;7.78;;;5.40;99.90;;;;;;5004948;28;20061;-73
2022/12/05 07:20:43;;;;;;;24.98;9.00;;;5.40;99.90;;;;;;5006362;28;20072;-74
2022/12/05 07:23:09;;;;;;;20.40;8.88;;;5.40;99.90;;;;;;5020547;28;20087;-74
2022/12/05 07:25:39;;;;;;;22.73;7.72;;;5.40;99.90;;;;;;4998537;28;20405;-73
2022/12/05 07:28:05;;;;;;;24.15;8.85;;;5.40;99.90;;;;;;5019771;28;20094;-73
2022/12/05 07:30:30;;;;;;;21.15;8.07;;;5.50;99.90;;;;;;5000644;28;20113;-73
2022/12/05 07:32:56;;;;;;;22.77;8.48;;;5.50;99.90;;;;;;5025297;28;20046;-75
2022/12/05 07:35:21;;;;;;;18.90;8.30;;;5.60;99.90;;;;;;5021924;28;20045;-74
2022/12/05 07:37:47;;;;;;;17.50;7.22;;;5.60;99.90;;;;;;5023095;28;20437;-73
2022/12/05 07:40:13;;;;;;;15.68;7.32;;;5.60;99.90;;;;;;5000780;28;20087;-74
2022/12/05 07:42:39;;;;;;;16.75;6.18;;;5.60;99.90;;;;;;5004955;28;20033;-75
2022/12/05 07:45:05;;;;;;;14.23;5.88;;;5.50;99.90;;;;;;5004905;28;20176;-73
2022/12/05 07:47:30;;;;;;;15.75;7.05;;;5.50;99.90;;;;;;5024912;28;20558;-73
2022/12/05 07:49:56;;;;;;;22.13;7.20;;;5.50;99.90;;;;;;5004427;28;20049;-73
2022/12/05 07:52:22;;;;;;;18.35;6.82;;;5.50;99.90;;;;;;5010226;28;20033;-73
2022/12/05 07:54:47;;;;;;;17.73;7.13;;;5.60;99.90;;;;;;5005168;28;20033;-73
2022/12/05 07:57:13;;;;;;;17.77;5.82;;;5.60;99.90;;;;;;5018085;28;20470;-74
2022/12/05 07:59:38;;;;;;;20.88;6.07;;;5.60;99.90;;;;;;4997922;28;20128;-73
2022/12/05 08:02:04;;;;;;;16.38;6.25;;;5.60;99.90;;;;;;5021659;28;20493;-74
2022/12/05 08:04:30;;;;;;;14.25;6.32;;;5.60;99.90;;;;;;5021778;28;20569;-72
2022/12/05 08:06:55;;;;;;;12.23;6.40;;;5.70;99.90;;;;;;5021437;28;20574;-73
2022/12/05 08:09:21;;;;;;;13.43;6.50;;;5.70;99.90;;;;;;5021793;28;20555;-72
2022/12/05 08:11:46;;;;;;;12.95;5.78;;;5.70;99.90;;;;;;5018433;28;20413;-72
2022/12/05 08:14:12;;;;;;;13.90;5.50;;;5.70;99.90;;;;;;5017496;28;20120;-73
2022/12/05 08:16:37;;;;;;;17.88;6.10;;;5.60;99.90;;;;;;5015748;28;20085;-73
2022/12/05 08:19:05;;;;;;;13.13;6.03;;;5.70;99.90;;;;;;5002724;28;20496;-73
2022/12/05 08:21:31;;;;;;;17.10;5.82;;;5.70;99.90;;;;;;5017442;28;20039;-73
2022/12/05 08:23:57;;;;;;;14.45;6.03;;;5.80;99.90;;;;;;5021788;28;20116;-73
2022/12/05 08:26:26;;;;;;;16.30;5.95;;;5.70;99.90;;;;;;5017782;28;20063;-74
2022/12/05 08:29:01;;;;;;;11.43;5.43;;;5.70;99.90;;;;;;5018222;28;20060;-73
2022/12/05 08:31:29;;;;;;;13.57;6.03;;;5.80;99.90;;;;;;5011232;28;20037;-75
2022/12/05 08:33:58;;;;;;;13.80;6.00;;;5.80;99.90;;;;;;5019654;28;20466;-73
2022/12/05 08:36:25;;;;;;;11.15;6.38;;;5.80;99.90;;;;;;5018368;28;20034;-73
2022/12/05 08:38:56;;;;;;;10.38;5.45;;;5.90;99.90;;;;;;5017859;28;20029;-73
2022/12/05 08:41:27;;;;;;;;;;;5.90;99.90;;;;;;5017624;28;20034;-75
2022/12/05 08:43:53;;;;;;;12.80;5.95;;;5.80;99.90;;;;;;5003106;28;19917;-75
2022/12/05 08:46:19;;;;;;;10.02;5.13;;;5.80;99.90;;;;;;5017818;28;20133;-74
2022/12/05 08:48:44;;;;;;;13.38;5.28;;;5.90;99.90;;;;;;5020819;28;20116;-73
2022/12/05 08:51:11;;;;;;;12.18;5.43;;;5.90;99.90;;;;;;5018266;28;20092;-72
2022/12/05 08:53:38;;;;;;;9.68;5.22;;;5.90;99.90;;;;;;5020265;28;20116;-73
2022/12/05 08:56:06;;;;;;;9.52;5.03;;;5.90;99.90;;;;;;5012677;28;20032;-73
2022/12/05 08:58:32;;;;;;;10.02;5.00;;;5.90;99.90;;;;;;5013906;28;20064;-73
2022/12/05 09:01:03;;;;;;;11.00;5.22;;;5.90;99.90;;;;;;5017819;28;20453;-73
2022/12/05 09:03:29;;;;;;;14.02;5.47;;;5.90;99.90;;;;;;5012525;28;20486;-73
2022/12/05 09:06:03;;;;;;;10.07;4.95;;;5.90;99.90;;;;;;5024310;28;20033;-75
2022/12/05 09:08:29;;;;;;;9.02;4.05;;;5.90;99.90;;;;;;5024088;28;20029;-72
2022/12/05 09:10:54;;;;;;;9.30;4.57;;;5.90;99.90;;;;;;5019121;28;20033;-73
2022/12/05 09:13:20;;;;;;;11.55;4.60;;;5.90;99.90;;;;;;4997013;28;20033;-74
2022/12/05 09:15:45;;;;;;;11.43;4.72;;;6.00;99.90;;;;;;5022143;28;20509;-73
2022/12/05 09:18:11;;;;;;;9.10;4.70;;;6.10;99.90;;;;;;4997127;28;20033;-73
2022/12/05 09:20:38;;;;;;;10.18;4.50;;;6.10;99.90;;;;;;5019228;28;20124;-73
2022/12/05 09:23:04;;;;;;;5.55;3.08;;;6.10;99.90;;;;;;5024525;28;21664;-73
2022/12/05 09:25:29;;;;;;;8.85;3.97;;;6.10;99.90;;;;;;5017837;28;20120;-73
2022/12/05 09:27:55;;;;;;;8.98;4.40;;;6.10;99.90;;;;;;4999377;28;20458;-73
2022/12/05 09:30:20;;;;;;;9.68;3.95;;;6.10;99.90;;;;;;5016627;28;20029;-74
2022/12/05 09:32:46;;;;;;;7.78;3.78;;;6.10;99.90;;;;;;5023367;28;20052;-72
2022/12/05 09:35:11;;;;;;;6.55;3.58;;;6.10;99.90;;;;;;5000707;28;20065;-73
2022/12/05 09:37:37;;;;;;;6.03;3.08;;;6.10;99.90;;;;;;5018130;28;20034;-73
2022/12/05 09:40:04;;;;;;;5.40;3.22;;;6.10;99.90;;;;;;5022624;28;20509;-73
2022/12/05 09:42:29;;;;;;;6.18;3.05;;;6.10;99.90;;;;;;5018138;28;20033;-73
2022/12/05 09:45:09;;;;;;;6.03;2.80;;;6.10;99.90;;;;;;5016757;28;20091;-73
2022/12/05 09:47:58;;;;;;;6.32;3.13;;;6.10;99.90;;;;;;5010870;28;20060;-73
2022/12/05 09:50:27;;;;;;;6.38;3.10;;;6.10;99.90;;;;;;5020926;28;20132;-73
2022/12/05 09:53:08;;;;;;;7.80;2.97;;;6.20;99.90;;;;;;5016250;28;20033;-73
2022/12/05 09:56:04;;;;;;;6.22;3.17;;;6.10;99.90;;;;;;4997497;28;20033;-74
2022/12/05 09:58:37;;;;;;;5.60;2.97;;;6.20;99.90;;;;;;4994847;28;20517;-73
2022/12/05 10:01:31;;;;;;;5.72;3.00;;;6.20;99.90;;;;;;5014755;28;20069;-73
2022/12/05 10:04:16;;;;;;;5.63;3.20;;;6.10;99.90;;;;;;5014789;28;20025;-73
2022/12/05 10:07:09;;;;;;;5.13;3.17;;;6.20;99.90;;;;;;5013124;28;20115;-74
2022/12/05 10:09:52;;;;;;;5.75;3.08;;;6.20;99.90;;;;;;5012137;28;20034;-74
2022/12/05 10:12:42;;;;;;;7.78;3.38;;;6.20;99.90;;;;;;5013785;28;20129;-73
2022/12/05 10:15:18;;;;;;;6.03;3.67;;;6.20;99.90;;;;;;5018098;28;20137;-74
2022/12/05 10:18:00;;;;;;;7.28;3.28;;;6.20;99.90;;;;;;5009789;28;20030;-73
2022/12/05 10:20:41;;;;;;;7.22;3.10;;;6.30;99.90;;;;;;5015166;28;20034;-73
2022/12/05 10:23:43;;;;;;;5.35;3.03;;;6.30;99.90;;;;;;5016588;28;20032;-73
2022/12/05 10:26:11;;;;;;;3.22;2.03;;;6.30;99.90;;;;;;5010895;28;20157;-74
2022/12/05 10:28:46;;;;;;;3.10;1.95;;;6.20;99.90;;;;;;4993525;28;20029;-73
2022/12/05 10:31:16;;;;;;;5.65;2.30;;;6.30;99.90;;;;;;5016341;28;20401;-73
2022/12/05 10:33:47;;;;;;;5.38;1.80;;;6.30;99.90;;;;;;5014318;28;20068;-72
2022/12/05 10:36:13;;;;;;;3.47;2.25;;;6.20;99.90;;;;;;5018031;28;20129;-73
2022/12/05 10:38:41;;;;;;;6.65;2.13;;;6.20;99.90;;;;;;5002894;28;20065;-73
2022/12/05 10:41:10;;;;;;;6.30;2.20;;;6.20;99.90;;;;;;5013689;28;20052;-72
2022/12/05 10:43:38;;;;;;;4.88;2.00;;;6.20;99.90;;;;;;5026578;28;20068;-73
2022/12/05 10:46:04;;;;;;;4.07;2.20;;;6.20;99.90;;;;;;5026761;28;20026;-73
2022/12/05 10:48:35;;;;;;;3.47;1.88;;;6.20;99.90;;;;;;5011180;28;20108;-73
2022/12/05 10:51:01;;;;;;;3.67;2.22;;;6.20;99.90;;;;;;5007098;28;20045;-73
2022/12/05 10:53:37;;;;;;;5.38;1.58;;;6.20;99.90;;;;;;5006744;28;20030;-72
2022/12/05 10:56:23;;;;;;;3.33;1.60;;;6.20;99.90;;;;;;5026871;28;20048;-72
2022/12/05 10:58:57;;;;;;;6.53;2.22;;;6.20;99.90;;;;;;4998672;28;20034;-73
2022/12/05 11:01:23;;;;;;;4.20;1.65;;;6.20;99.90;;;;;;4997763;28;20042;-73
2022/12/05 11:03:56;;;;;;;2.28;1.27;;;6.10;99.90;;;;;;4987362;28;20051;-73
2022/12/05 11:06:27;;;;;;;4.18;1.92;;;6.10;99.90;;;;;;4987293;28;20042;-72
2022/12/05 11:09:04;;;;;;;3.67;1.55;;;6.10;99.90;;;;;;5027085;28;20493;-74
2022/12/05 11:11:32;;;;;;;2.42;1.45;;;6.20;99.90;;;;;;5022810;28;20377;-74
2022/12/05 11:14:01;;;;;;;3.63;2.08;;;6.30;99.90;;;;;;5018589;28;20084;-73
2022/12/05 11:16:33;;;;;;;3.72;1.67;;;6.30;99.90;;;;;;5009784;28;20124;-73
2022/12/05 11:19:20;;;;;;;3.15;1.23;;;6.30;99.90;;;;;;5011159;28;20033;-72
2022/12/05 11:21:46;;;;;;;2.45;1.45;;;6.30;99.90;;;;;;5010069;28;20026;-73
2022/12/05 11:24:33;;;;;;;5.45;2.25;;;6.30;99.90;;;;;;5018761;28;20129;-73
2022/12/05 11:27:14;;;;;;;2.58;1.60;;;6.40;99.90;;;;;;5015629;28;20026;-75
2022/12/05 11:29:40;;;;;;;4.15;1.45;;;6.30;99.90;;;;;;4996900;28;20045;-74
2022/12/05 11:32:18;;;;;;;3.20;1.55;;;6.30;99.90;;;;;;5022360;28;20121;-73
2022/12/05 11:35:05;;;;;;;4.82;1.70;;;6.30;99.90;;;;;;5014541;28;20112;-73
2022/12/05 11:37:51;;;;;;;3.28;1.73;;;6.40;99.90;;;;;;5010231;28;20040;-73
2022/12/05 11:40:40;;;;;;;3.70;1.83;;;6.40;99.90;;;;;;5011377;28;20034;-73
2022/12/05 11:43:11;;;;;;;6.70;2.00;;;6.30;99.90;;;;;;5009137;28;20057;-73
2022/12/05 11:45:43;;;;;;;3.97;1.95;;;6.40;99.90;;;;;;5008769;28;20398;-73
2022/12/05 11:48:33;;;;;;;2.75;1.60;;;6.40;99.90;;;;;;5025929;28;20464;-75
2022/12/05 11:51:23;;;;;;;4.88;1.80;;;6.40;99.90;;;;;;5008172;28;20049;-74
2022/12/05 11:54:07;;;;;;;5.00;2.05;;;6.40;99.90;;;;;;4990946;28;20588;-73
2022/12/05 11:56:37;;;;;;;4.07;1.90;;;6.40;99.90;;;;;;5008899;28;20569;-73
2022/12/05 11:59:24;;;;;;;5.80;2.47;;;6.40;99.90;;;;;;5026046;28;20030;-73
2022/12/05 12:02:16;;;;;;;3.10;1.90;;;6.30;99.90;;;;;;5001992;28;20029;-73
2022/12/05 12:05:12;;;;;;;6.38;2.00;;;6.30;99.90;;;;;;5010283;28;20033;-73
2022/12/05 12:07:47;;;;;;;6.75;2.28;;;6.30;99.90;;;;;;5004634;28;20034;-72
2022/12/05 12:10:32;;;;;;;4.13;2.03;;;6.40;99.90;;;;;;5009478;28;20033;-73
2022/12/05 12:13:16;;;;;;;3.88;1.70;;;6.30;99.90;;;;;;5009458;28;20048;-74
2022/12/05 12:15:57;;;;;;;3.78;1.77;;;6.40;99.90;;;;;;5026512;28;20060;-73
2022/12/05 12:18:54;;;;;;;3.70;1.98;;;6.40;99.90;;;;;;5021951;28;20144;-75
2022/12/05 12:21:28;;;;;;;3.80;2.00;;;6.40;99.90;;;;;;5008530;28;20062;-73
2022/12/05 12:24:08;;;;;;;5.25;1.65;;;6.40;99.90;;;;;;5009660;28;20034;-73
2022/12/05 12:26:51;;;;;;;5.55;2.40;;;6.40;99.90;;;;;;4996035;28;20358;-73
2022/12/05 12:29:44;;;;;;;6.18;1.77;;;6.50;99.90;;;;;;5027069;28;20405;-73
2022/12/05 12:32:38;;;;;;;5.00;2.17;;;6.40;99.90;;;;;;4989371;28;20454;-74
2022/12/05 12:35:28;;;;;;;6.13;2.03;;;6.50;99.90;;;;;;4989442;28;20026;-72
2022/12/05 12:37:57;;;;;;;2.92;1.63;;;6.50;99.90;;;;;;5021862;28;20034;-73
2022/12/05 12:40:28;;;;;;;4.20;1.83;;;6.50;99.90;;;;;;5019727;28;20084;-73
2022/12/05 12:43:06;;;;;;;4.18;2.13;;;6.40;99.90;;;;;;5015906;28;20030;-74
2022/12/05 12:45:31;;;;;;;4.43;2.33;;;6.40;99.90;;;;;;5016690;28;20040;-74
2022/12/05 12:48:36;;;;;;;7.45;2.00;;;6.50;99.90;;;;;;5017951;28;20038;-73
2022/12/05 12:51:02;;;;;;;6.03;2.33;;;6.50;99.90;;;;;;5011309;28;20056;-73
2022/12/05 12:53:43;;;;;;;4.93;2.22;;;6.50;99.90;;;;;;5017726;28;20045;-73
2022/12/05 12:56:08;;;;;;;;;;;6.50;99.90;;;;;;4998597;28;20413;-73
2022/12/05 12:58:37;;;;;;;4.70;1.77;;;6.50;99.90;;;;;;5021934;28;19913;-73
2022/12/05 13:01:19;;;;;;;4.30;2.17;;;6.50;99.90;;;;;;5021066;28;20068;-72
2022/12/05 13:03:49;;;;;;;6.22;2.00;;;6.50;99.90;;;;;;5006523;28;20041;-72
2022/12/05 13:06:23;;;;;;;3.63;1.63;;;6.50;99.90;;;;;;5020240;28;20041;-75
2022/12/05 13:08:54;;;;;;;3.10;1.52;;;6.50;99.90;;;;;;5016883;28;20025;-74
2022/12/05 13:11:21;;;;;;;5.20;1.65;;;6.60;99.90;;;;;;5023358;28;20045;-73
2022/12/05 13:13:53;;;;;;;8.25;2.45;;;6.60;99.90;;;;;;5018240;28;20063;-75
2022/12/05 13:16:38;;;;;;;2.67;1.27;;;6.60;99.90;;;;;;5021850;28;20033;-74
2022/12/05 13:19:05;;;;;;;3.38;1.60;;;6.60;99.90;;;;;;5016001;28;20038;-75
2022/12/05 13:21:32;;;;;;;6.05;2.53;;;6.60;99.90;;;;;;5004771;28;20048;-73
2022/12/05 13:24:04;;;;;;;4.15;2.03;;;6.70;99.90;;;;;;5022808;28;20087;-73